createdAt,value
2022-10-19T00:01:22.268Z,78.76
2022-10-19T00:03:52.580Z,78.86
2022-10-19T00:06:26.977Z,78.83
2022-10-19T00:08:58.124Z,78.93
2022-10-19T00:11:27.177Z,79.02
2022-10-19T00:13:56.768Z,78.94
2022-10-19T00:16:28.196Z,78.91
2022-10-19T00:18:58.086Z,78.95
2022-10-19T00:21:27.780Z,78.94
2022-10-19T00:23:57.776Z,79.21
2022-10-19T00:26:28.794Z,79.24
2022-10-19T00:28:59.410Z,79.26
2022-10-19T00:31:28.555Z,79.29
2022-10-19T00:33:58.517Z,79.43
2022-10-19T00:36:29.550Z,79.45
2022-10-19T00:38:59.475Z,79.57
2022-10-19T00:41:30.420Z,79.64
2022-10-19T00:43:59.131Z,79.65
2022-10-19T00:46:29.217Z,79.64
2022-10-19T00:49:01.466Z,79.70
2022-10-19T00:51:32.664Z,79.68
2022-10-19T00:54:02.818Z,79.62
2022-10-19T00:56:56.725Z,79.86
2022-10-19T00:59:28.252Z,79.95
2022-10-19T01:04:38.790Z,79.95
2022-10-19T01:07:09.170Z,79.85
2022-10-19T01:09:37.996Z,79.87
2022-10-19T01:12:27.370Z,79.98
2022-10-19T01:14:56.035Z,80.03
2022-10-19T01:17:27.588Z,80.01
2022-10-19T01:20:14.551Z,79.97
2022-10-19T01:22:44.295Z,80.00
2022-10-19T01:25:22.027Z,80.08
2022-10-19T01:28:09.427Z,79.97
2022-10-19T01:30:56.743Z,79.95
2022-10-19T01:33:32.067Z,79.96
2022-10-19T01:36:14.862Z,79.89
2022-10-19T01:38:49.693Z,80.01
2022-10-19T01:41:22.803Z,80.22
2022-10-19T01:43:58.562Z,80.12
2022-10-19T01:46:29.991Z,80.25
2022-10-19T01:49:18.977Z,79.99
2022-10-19T01:51:52.359Z,79.96
2022-10-19T01:54:24.776Z,80.09
2022-10-19T01:56:55.583Z,79.97
2022-10-19T01:59:24.103Z,79.93
2022-10-19T02:01:54.304Z,79.82
2022-10-19T02:04:24.650Z,79.76
2022-10-19T02:06:54.549Z,80.05
2022-10-19T02:09:23.607Z,79.88
2022-10-19T02:11:57.383Z,80.09
2022-10-19T02:14:30.634Z,79.98
2022-10-19T02:17:17.414Z,80.04
2022-10-19T02:19:46.430Z,80.18
2022-10-19T02:22:15.236Z,80.21
2022-10-19T02:24:44.506Z,80.25
2022-10-19T02:27:15.374Z,80.25
2022-10-19T02:29:45.644Z,79.99
2022-10-19T02:32:15.888Z,80.18
2022-10-19T02:34:46.473Z,80.29
2022-10-19T02:37:16.494Z,80.12
2022-10-19T02:39:45.269Z,80.21
2022-10-19T02:42:28.455Z,80.10
2022-10-19T02:44:59.019Z,80.04
2022-10-19T02:47:36.336Z,80.04
2022-10-19T02:50:08.983Z,79.93
2022-10-19T02:52:39.333Z,79.95
2022-10-19T02:55:34.659Z,80.33
2022-10-19T02:58:04.199Z,80.37
2022-10-19T03:00:33.617Z,80.39
2022-10-19T03:03:03.562Z,80.20
2022-10-19T03:05:33.885Z,79.51
2022-10-19T03:08:02.932Z,79.68
2022-10-19T03:10:32.142Z,79.80
2022-10-19T03:13:01.189Z,79.62
2022-10-19T03:15:31.255Z,79.57
2022-10-19T03:17:59.964Z,79.55
2022-10-19T03:20:28.937Z,79.70
2022-10-19T03:22:58.879Z,79.85
2022-10-19T03:25:29.809Z,79.94
2022-10-19T03:28:00.237Z,79.98
2022-10-19T03:30:35.251Z,80.00
2022-10-19T03:33:04.655Z,80.16
2022-10-19T03:35:34.297Z,80.15
2022-10-19T03:38:04.888Z,80.21
2022-10-19T03:40:33.502Z,80.40
2022-10-19T03:43:04.896Z,80.54
2022-10-19T03:45:33.533Z,80.44
2022-10-19T03:48:06.915Z,80.70
2022-10-19T03:50:36.427Z,80.66
2022-10-19T03:53:06.531Z,80.84
2022-10-19T03:56:03.429Z,80.49
2022-10-19T03:58:33.635Z,80.52
2022-10-19T04:01:07.126Z,80.48
2022-10-19T04:06:12.213Z,80.47
2022-10-19T04:08:44.451Z,79.96
2022-10-19T04:11:14.566Z,80.28
2022-10-19T04:13:43.274Z,80.06
2022-10-19T04:16:14.081Z,79.80
2022-10-19T04:18:42.614Z,80.20
2022-10-19T04:21:20.515Z,80.45
2022-10-19T04:23:51.336Z,80.48
2022-10-19T04:26:20.459Z,80.53
2022-10-19T04:28:49.949Z,80.41
2022-10-19T04:31:19.233Z,80.02
2022-10-19T04:33:48.525Z,80.27
2022-10-19T04:36:18.158Z,80.30
2022-10-19T04:38:48.984Z,80.57
2022-10-19T04:41:19.248Z,80.71
2022-10-19T04:43:48.908Z,80.61
2022-10-19T04:46:19.250Z,80.49
2022-10-19T04:48:49.078Z,80.59
2022-10-19T04:51:18.962Z,80.45
2022-10-19T04:53:49.520Z,80.35
2022-10-19T04:59:56.077Z,79.57
2022-10-19T05:02:26.466Z,79.78
2022-10-19T05:04:55.865Z,80.03
2022-10-19T05:07:26.004Z,80.08
2022-10-19T05:09:54.753Z,80.00
2022-10-19T05:16:01.572Z,80.25
2022-10-19T05:18:30.676Z,80.19
2022-10-19T05:21:05.006Z,80.19
2022-10-19T05:23:34.019Z,80.11
2022-10-19T05:26:07.745Z,80.25
2022-10-19T05:28:37.771Z,80.60
2022-10-19T05:31:09.710Z,80.51
2022-10-19T05:33:39.091Z,80.84
2022-10-19T05:36:15.034Z,80.65
2022-10-19T05:38:45.416Z,80.27
2022-10-19T05:41:14.907Z,80.38
2022-10-19T05:43:44.657Z,80.72
2022-10-19T05:46:22.508Z,80.67
2022-10-19T05:48:51.734Z,80.32
2022-10-19T05:51:27.303Z,80.51
2022-10-19T05:53:56.755Z,80.81
2022-10-19T05:56:31.136Z,80.81
2022-10-19T05:59:02.259Z,80.91
2022-10-19T06:01:31.612Z,80.87
2022-10-19T06:04:03.408Z,80.83
2022-10-19T06:06:32.133Z,80.62
2022-10-19T06:09:00.999Z,80.72
2022-10-19T06:11:31.259Z,80.19
2022-10-19T06:14:00.239Z,80.26
2022-10-19T06:16:30.327Z,80.77
2022-10-19T06:18:59.288Z,80.84
2022-10-19T06:41:21.333Z,80.16
2022-10-19T06:43:51.516Z,80.28
2022-10-19T06:46:22.362Z,80.69
2022-10-19T07:02:16.164Z,79.84
2022-10-19T07:05:06.243Z,79.90
2022-10-19T07:07:36.739Z,79.54
2022-10-19T07:10:07.425Z,79.49
2022-10-19T07:12:38.947Z,79.62
2022-10-19T07:15:08.235Z,79.66
2022-10-19T07:17:38.217Z,79.53
2022-10-19T07:20:08.492Z,79.12
2022-10-19T07:22:38.295Z,79.31
2022-10-19T07:25:07.705Z,79.36
2022-10-19T07:27:42.314Z,79.52
2022-10-19T07:30:13.214Z,79.56
2022-10-19T07:32:45.989Z,79.75
2022-10-19T07:35:18.098Z,79.75
2022-10-19T07:37:48.921Z,79.90
2022-10-19T07:40:19.513Z,79.53
2022-10-19T07:42:48.142Z,79.40
2022-10-19T07:45:18.245Z,79.31
2022-10-19T07:47:47.674Z,79.39
2022-10-19T07:50:25.007Z,79.31
2022-10-19T07:52:55.499Z,79.42
2022-10-19T07:55:52.079Z,79.52
2022-10-19T07:58:23.278Z,79.21
2022-10-19T08:07:05.471Z,79.59
2022-10-19T08:12:27.971Z,79.06
2022-10-19T08:14:56.656Z,79.06
2022-10-19T08:17:26.183Z,78.86
2022-10-19T08:19:56.230Z,78.78
2022-10-19T08:22:25.118Z,79.08
2022-10-19T08:24:54.574Z,79.25
2022-10-19T08:27:27.209Z,78.86
2022-10-19T08:39:31.993Z,78.37
2022-10-19T08:42:22.798Z,78.49
2022-10-19T08:44:53.284Z,78.05
2022-10-19T08:47:27.689Z,77.87
2022-10-19T08:49:57.684Z,77.43
2022-10-19T08:59:21.106Z,75.85
2022-10-19T09:01:58.654Z,75.17
2022-10-19T09:04:37.307Z,74.70
2022-10-19T09:07:24.967Z,74.24
2022-10-19T09:10:00.288Z,72.87
2022-10-19T09:12:44.671Z,70.96
2022-10-19T09:15:19.702Z,69.43
2022-10-19T09:17:48.347Z,68.78
2022-10-19T09:20:26.922Z,69.29
2022-10-19T09:23:13.621Z,68.17
2022-10-19T09:25:42.302Z,66.26
2022-10-19T09:28:36.437Z,66.16
2022-10-19T09:31:13.821Z,66.24
2022-10-19T09:33:43.844Z,66.19
2022-10-19T09:36:22.393Z,66.81
2022-10-19T09:38:56.225Z,65.73
2022-10-19T09:41:25.088Z,64.04
2022-10-19T09:43:55.102Z,62.69
2022-10-19T09:46:23.702Z,62.42
2022-10-19T09:48:53.168Z,62.83
2022-10-19T09:51:21.931Z,62.88
2022-10-19T09:53:54.975Z,63.87
2022-10-19T09:56:28.550Z,65.02
2022-10-19T09:59:02.344Z,65.59
2022-10-19T10:01:43.353Z,66.13
2022-10-19T10:04:19.365Z,66.49
2022-10-19T10:06:51.060Z,65.52
2022-10-19T10:12:31.140Z,66.40
2022-10-19T10:15:04.317Z,66.96
2022-10-19T10:17:36.313Z,66.94
2022-10-19T10:20:17.602Z,66.92
2022-10-19T10:22:57.442Z,66.64
2022-10-19T10:25:28.340Z,66.84
2022-10-19T10:28:01.710Z,66.41
2022-10-19T10:30:36.349Z,65.76
2022-10-19T10:33:13.522Z,64.77
2022-10-19T10:35:54.113Z,63.61
2022-10-19T10:38:27.459Z,62.36
2022-10-19T10:40:58.306Z,61.63
2022-10-19T10:43:33.970Z,61.28
2022-10-19T10:46:06.037Z,61.52
2022-10-19T10:49:00.835Z,61.51
2022-10-19T10:55:00.872Z,61.89
2022-10-19T10:57:39.728Z,61.98
2022-10-19T11:00:17.375Z,62.26
2022-10-19T11:02:54.016Z,62.30
2022-10-19T11:05:25.606Z,62.16
2022-10-19T11:07:58.773Z,62.57
2022-10-19T11:10:35.313Z,62.57
2022-10-19T11:13:06.125Z,62.76
2022-10-19T11:15:45.187Z,62.83
2022-10-19T11:18:21.964Z,62.57
2022-10-19T11:20:58.902Z,61.78
2022-10-19T11:23:46.791Z,61.75
2022-10-19T11:26:26.125Z,61.97
2022-10-19T11:29:14.805Z,61.65
2022-10-19T11:31:46.287Z,61.67
2022-10-19T11:34:19.307Z,61.53
2022-10-19T11:36:55.291Z,61.55
2022-10-19T11:39:34.224Z,61.44
2022-10-19T11:42:13.176Z,61.38
2022-10-19T11:44:55.889Z,61.45
2022-10-19T11:47:32.155Z,60.96
2022-10-19T11:50:10.876Z,60.35
2022-10-19T11:52:39.423Z,60.22
2022-10-19T11:59:36.238Z,58.74
2022-10-19T12:02:05.086Z,58.51
2022-10-19T12:04:33.831Z,58.52
2022-10-19T12:07:15.793Z,58.88
2022-10-19T12:09:46.805Z,59.34
2022-10-19T12:12:15.429Z,59.48
2022-10-19T12:14:48.803Z,59.66
2022-10-19T12:17:25.154Z,59.63
2022-10-19T12:19:59.935Z,59.59
2022-10-19T12:22:31.229Z,59.64
2022-10-19T12:25:01.953Z,59.70
2022-10-19T12:27:35.196Z,59.62
2022-10-19T12:40:45.235Z,59.78
2022-10-19T12:43:17.518Z,59.76
2022-10-19T12:45:49.608Z,59.58
2022-10-19T12:48:21.142Z,59.84
2022-10-19T12:50:51.705Z,59.68
2022-10-19T12:53:28.214Z,59.46
2022-10-19T13:00:23.382Z,59.00
2022-10-19T13:03:05.137Z,58.98
2022-10-19T13:05:35.330Z,58.70
2022-10-19T13:08:07.015Z,58.26
2022-10-19T13:10:41.079Z,58.11
2022-10-19T13:13:31.803Z,57.85
2022-10-19T13:16:02.955Z,57.98
2022-10-19T13:18:50.299Z,57.74
2022-10-19T13:21:38.324Z,57.71
2022-10-19T13:24:25.609Z,57.60
2022-10-19T13:27:04.265Z,57.66
2022-10-19T13:29:39.626Z,57.53
2022-10-19T13:32:27.179Z,57.47
2022-10-19T13:35:13.284Z,57.49
2022-10-19T13:37:41.928Z,57.45
2022-10-19T13:40:24.448Z,57.48
2022-10-19T13:42:58.852Z,57.19
2022-10-19T13:45:27.736Z,56.69
2022-10-19T13:48:09.946Z,56.71
2022-10-19T13:50:45.097Z,56.38
2022-10-19T13:53:32.182Z,56.08
2022-10-19T13:56:18.422Z,56.02
2022-10-19T13:59:11.172Z,55.90
2022-10-19T14:02:16.219Z,56.12
2022-10-19T14:05:03.878Z,56.36
2022-10-19T14:07:51.343Z,56.36
2022-10-19T14:10:25.159Z,56.28
2022-10-19T14:13:28.534Z,56.48
2022-10-19T14:16:03.511Z,56.41
2022-10-19T14:18:42.656Z,56.30
2022-10-19T14:24:38.006Z,56.11
2022-10-19T14:27:17.596Z,55.98
2022-10-19T14:29:47.992Z,56.20
2022-10-19T14:32:25.496Z,55.78
2022-10-19T14:34:55.932Z,55.71
2022-10-19T14:37:26.345Z,55.61
2022-10-19T14:40:12.561Z,55.61
2022-10-19T14:43:04.778Z,55.41
2022-10-19T14:45:46.179Z,55.29
2022-10-19T14:48:21.089Z,55.13
2022-10-19T14:50:59.588Z,55.07
2022-10-19T14:53:55.548Z,55.17
2022-10-19T14:56:35.966Z,55.20
2022-10-19T14:59:37.922Z,55.36
2022-10-19T15:02:31.190Z,55.22
2022-10-19T15:05:07.526Z,55.20
2022-10-19T15:08:09.985Z,55.35
2022-10-19T15:10:44.183Z,55.37
2022-10-19T15:13:39.424Z,55.35
2022-10-19T15:16:31.941Z,55.31
2022-10-19T15:23:46.585Z,55.49
2022-10-19T15:26:17.524Z,55.42
2022-10-19T15:59:01.364Z,55.93
2022-10-19T16:01:32.363Z,56.11
2022-10-19T16:04:03.582Z,55.98
2022-10-19T16:06:34.638Z,55.90
2022-10-19T16:09:05.099Z,56.18
2022-10-19T16:11:37.083Z,55.97
2022-10-19T16:14:05.930Z,55.98
2022-10-19T16:16:36.950Z,55.88
2022-10-19T16:19:10.506Z,56.15
2022-10-19T16:21:40.972Z,55.84
2022-10-19T16:24:10.638Z,55.84
2022-10-19T16:26:41.217Z,55.80
2022-10-19T16:29:10.587Z,56.06
2022-10-19T16:45:13.197Z,56.53
2022-10-19T16:47:48.673Z,56.37
2022-10-19T16:50:18.673Z,56.43
2022-10-19T16:52:49.165Z,56.43
2022-10-19T16:55:39.134Z,56.58
2022-10-19T16:58:15.386Z,56.53
2022-10-19T17:00:47.483Z,56.61
2022-10-19T17:03:18.825Z,56.51
2022-10-19T17:05:48.502Z,56.60
2022-10-19T17:08:19.638Z,56.56
2022-10-19T17:10:50.161Z,56.70
2022-10-19T17:13:27.355Z,56.63
2022-10-19T17:15:56.643Z,56.60
2022-10-19T17:18:25.254Z,56.92
2022-10-19T17:20:55.556Z,56.39
2022-10-19T17:23:25.804Z,57.11
2022-10-19T17:25:56.629Z,57.17
2022-10-19T17:28:31.219Z,57.04
2022-10-19T17:31:04.507Z,57.24
2022-10-19T17:33:35.166Z,57.33
2022-10-19T17:36:14.729Z,57.24
2022-10-19T17:38:50.028Z,57.18
2022-10-19T17:41:21.031Z,57.36
2022-10-19T17:43:57.709Z,57.26
2022-10-19T17:46:30.387Z,57.40
2022-10-19T17:49:04.359Z,57.48
2022-10-19T19:14:04.106Z,59.02
2022-10-19T19:16:36.262Z,59.38
2022-10-19T19:19:07.444Z,59.60
2022-10-19T19:21:38.237Z,59.40
2022-10-19T19:24:08.712Z,59.42
2022-10-19T19:26:41.044Z,59.50
2022-10-19T19:29:12.433Z,59.43
2022-10-19T19:31:42.105Z,59.49
2022-10-19T19:34:11.274Z,59.50
2022-10-19T19:36:48.355Z,59.46
2022-10-19T19:39:21.517Z,59.47
2022-10-19T19:41:52.234Z,59.62
2022-10-19T19:44:30.501Z,59.72
2022-10-19T19:47:02.833Z,59.43
2022-10-19T19:49:34.244Z,59.65
2022-10-19T19:52:03.875Z,59.67
2022-10-19T19:54:34.523Z,59.80
2022-10-19T19:57:38.346Z,59.75
2022-10-19T20:00:12.432Z,59.81
2022-10-19T20:02:42.224Z,60.14
2022-10-19T20:05:12.451Z,60.01
2022-10-19T20:07:46.978Z,60.05
2022-10-19T20:10:19.505Z,60.05
2022-10-19T20:12:50.789Z,60.18
2022-10-19T20:15:21.589Z,60.25
2022-10-19T20:18:03.131Z,60.43
2022-10-19T20:20:44.731Z,60.26
2022-10-19T20:23:15.158Z,60.35
2022-10-19T20:25:44.839Z,60.37
2022-10-19T20:28:14.320Z,60.42
2022-10-19T20:30:45.425Z,60.53
2022-10-19T20:33:15.770Z,60.46
2022-10-19T20:35:46.759Z,60.73
2022-10-19T20:38:17.120Z,60.77
2022-10-19T20:40:45.740Z,60.80
2022-10-19T20:43:17.759Z,60.97
2022-10-19T20:45:47.698Z,60.63
2022-10-19T20:48:16.496Z,60.99
2022-10-19T20:50:45.004Z,61.28
2022-10-19T20:53:14.126Z,61.46
2022-10-19T20:55:44.843Z,61.24
2022-10-19T20:58:13.547Z,61.05
2022-10-19T21:00:43.648Z,60.71
2022-10-19T21:03:15.321Z,60.78
2022-10-19T21:05:44.958Z,60.99
2022-10-19T21:08:16.348Z,60.96
2022-10-19T21:10:46.333Z,61.21
2022-10-19T21:13:16.856Z,61.12
2022-10-19T21:15:47.743Z,61.11
2022-10-19T21:18:16.124Z,61.34
2022-10-19T21:20:44.756Z,61.31
2022-10-19T21:23:15.377Z,61.55
2022-10-19T21:25:52.961Z,61.58
2022-10-19T21:28:25.099Z,61.58
2022-10-19T21:30:53.487Z,61.62
2022-10-19T21:33:23.380Z,61.62
2022-10-19T21:35:54.044Z,61.63
2022-10-19T21:38:22.824Z,61.62
2022-10-19T21:40:51.516Z,61.62
2022-10-19T21:43:22.135Z,61.79
2022-10-19T21:45:51.156Z,61.94
2022-10-19T21:48:20.273Z,61.87
2022-10-19T21:50:50.244Z,61.98
2022-10-19T21:53:20.238Z,62.06
2022-10-19T21:56:14.772Z,62.14
2022-10-19T21:58:48.667Z,62.12
2022-10-19T22:01:18.662Z,62.24
2022-10-19T22:03:48.089Z,62.31
2022-10-19T22:06:17.642Z,62.37
2022-10-19T22:08:49.695Z,62.32
2022-10-19T22:11:19.455Z,62.50
2022-10-19T22:13:48.737Z,62.34
2022-10-19T22:16:21.015Z,62.62
2022-10-19T22:18:50.709Z,62.53
2022-10-19T22:21:22.897Z,62.56
2022-10-19T22:23:56.179Z,62.66
2022-10-19T22:26:26.985Z,62.80
2022-10-19T22:28:56.724Z,63.03
2022-10-19T22:31:26.877Z,63.08
2022-10-19T22:33:57.406Z,63.39
2022-10-19T22:36:27.777Z,63.37
2022-10-19T22:38:57.349Z,63.38
2022-10-19T22:42:03.943Z,63.34
2022-10-19T22:44:54.685Z,63.44
2022-10-19T22:47:23.258Z,63.34
2022-10-19T22:49:52.565Z,63.35
2022-10-19T22:52:21.242Z,63.29
2022-10-19T22:54:51.583Z,63.34
2022-10-19T22:57:21.911Z,63.20
2022-10-19T22:59:51.208Z,63.18
2022-10-19T23:02:21.565Z,63.13
2022-10-19T23:04:50.505Z,63.34
2022-10-19T23:07:18.967Z,63.30
2022-10-19T23:09:48.043Z,63.57
2022-10-19T23:12:16.707Z,63.41
2022-10-19T23:14:45.333Z,63.42
2022-10-19T23:17:14.025Z,63.54
2022-10-19T23:19:42.575Z,63.70
2022-10-19T23:22:14.158Z,63.54
2022-10-19T23:24:42.634Z,63.85
2022-10-19T23:27:12.846Z,64.00
2022-10-19T23:29:44.383Z,63.84
2022-10-19T23:32:13.094Z,64.01
2022-10-19T23:34:44.512Z,63.79
2022-10-19T23:37:18.188Z,63.81
2022-10-19T23:39:46.747Z,63.80
2022-10-19T23:42:15.232Z,64.05
2022-10-19T23:44:43.820Z,64.07
2022-10-19T23:47:13.196Z,63.86
2022-10-19T23:49:41.724Z,63.82
2022-10-19T23:52:11.668Z,63.86
2022-10-19T23:54:40.226Z,64.37
2022-10-19T23:58:00.581Z,64.53
